createdAt,value
2019-01-30T00:00:41.476Z,-2.87
2019-01-30T00:01:41.393Z,-2.9
2019-01-30T00:02:41.162Z,-2.9
2019-01-30T00:03:41.161Z,-2.91
2019-01-30T00:04:41.326Z,-2.91
2019-01-30T00:05:41.239Z,-2.99
2019-01-30T00:06:41.385Z,-2.94
2019-01-30T00:07:41.205Z,-2.96
2019-01-30T00:08:41.217Z,-2.98
2019-01-30T00:09:41.233Z,-3.02
2019-01-30T00:10:41.303Z,-3.03
2019-01-30T00:11:41.228Z,-3
2019-01-30T00:12:41.462Z,-2.99
2019-01-30T00:13:41.654Z,-3.04
2019-01-30T00:14:41.302Z,-3.04
2019-01-30T00:15:41.175Z,-2.98
2019-01-30T00:16:41.331Z,-2.98
2019-01-30T00:17:41.520Z,-2.99
2019-01-30T00:18:41.118Z,-3.02
2019-01-30T00:19:41.124Z,-3.03
2019-01-30T00:20:41.613Z,-2.96
2019-01-30T00:21:41.096Z,-3.01
2019-01-30T00:22:41.359Z,-2.97
2019-01-30T00:23:41.215Z,-2.98
2019-01-30T00:24:41.209Z,-3.03
2019-01-30T00:25:41.260Z,-3.01
2019-01-30T00:26:41.120Z,-3.09
2019-01-30T00:27:41.160Z,-3.04
2019-01-30T00:28:41.181Z,-3
2019-01-30T00:29:41.113Z,-2.99
2019-01-30T00:30:41.200Z,-2.96
2019-01-30T00:31:41.186Z,-3.04
2019-01-30T00:32:41.201Z,-2.98
2019-01-30T00:33:41.519Z,-3.05
2019-01-30T00:34:41.271Z,-3.06
2019-01-30T00:35:41.252Z,-3.1
2019-01-30T00:36:41.244Z,-3.13
2019-01-30T00:37:41.304Z,-3.12
2019-01-30T00:38:42.929Z,-3.06
2019-01-30T00:39:41.616Z,-3.11
2019-01-30T00:40:41.675Z,-3.1
2019-01-30T00:41:41.186Z,-2.99
2019-01-30T00:42:41.237Z,-3.05
2019-01-30T00:43:41.348Z,-3.05
2019-01-30T00:44:41.633Z,-3.01
2019-01-30T00:45:41.473Z,-3.13
2019-01-30T00:46:41.097Z,-3.13
2019-01-30T00:47:41.403Z,-3.1
2019-01-30T00:48:41.495Z,-3.07
2019-01-30T00:49:41.391Z,-3.09
2019-01-30T00:50:42.908Z,-3.1
2019-01-30T00:51:42.084Z,-3.14
2019-01-30T00:52:41.744Z,-3.14
2019-01-30T00:53:41.212Z,-3.17
2019-01-30T00:54:42.908Z,-3.12
2019-01-30T00:55:41.361Z,-3.15
2019-01-30T00:56:41.649Z,-3.19
2019-01-30T00:57:41.334Z,-3.14
2019-01-30T00:58:41.116Z,-3.09
2019-01-30T00:59:41.579Z,-3.17
2019-01-30T01:00:41.812Z,-3.15
2019-01-30T01:01:41.205Z,-3.22
2019-01-30T01:02:41.065Z,-3.15
2019-01-30T01:03:41.050Z,-3.16
2019-01-30T01:04:41.621Z,-3.18
2019-01-30T01:05:41.115Z,-3.23
2019-01-30T01:06:41.294Z,-3.22
2019-01-30T01:07:41.433Z,-3.24
2019-01-30T01:08:41.319Z,-3.27
2019-01-30T01:09:41.097Z,-3.25
2019-01-30T01:10:41.347Z,-3.26
2019-01-30T01:11:41.347Z,-3.28
2019-01-30T01:12:41.136Z,-3.27
2019-01-30T01:13:41.067Z,-3.31
2019-01-30T01:14:41.374Z,-3.33
2019-01-30T01:15:41.169Z,-3.32
2019-01-30T01:16:41.503Z,-3.33
2019-01-30T01:17:41.086Z,-3.29
2019-01-30T01:18:41.304Z,-3.3
2019-01-30T01:19:41.103Z,-3.29
2019-01-30T01:20:41.529Z,-3.32
2019-01-30T01:21:41.839Z,-3.31
2019-01-30T01:22:41.077Z,-3.31
2019-01-30T01:23:41.153Z,-3.28
2019-01-30T01:24:41.544Z,-3.22
2019-01-30T01:25:41.340Z,-3.3
2019-01-30T01:26:41.226Z,-3.36
2019-01-30T01:27:41.056Z,-3.36
2019-01-30T01:28:41.346Z,-3.31
2019-01-30T01:29:41.584Z,-3.28
2019-01-30T01:30:41.137Z,-3.24
2019-01-30T01:31:41.090Z,-3.26
2019-01-30T01:32:41.325Z,-3.24
2019-01-30T01:33:41.307Z,-3.28
2019-01-30T01:34:41.198Z,-3.23
2019-01-30T01:35:41.041Z,-3.32
2019-01-30T01:36:41.187Z,-3.29
2019-01-30T01:37:41.056Z,-3.2
2019-01-30T01:38:41.102Z,-3.33
2019-01-30T01:39:41.046Z,-3.29
2019-01-30T01:40:41.350Z,-3.29
2019-01-30T01:41:41.344Z,-3.3
2019-01-30T01:42:41.133Z,-3.35
2019-01-30T01:43:41.255Z,-3.33
2019-01-30T01:44:41.255Z,-3.38
2019-01-30T01:45:41.074Z,-3.29
2019-01-30T01:46:41.276Z,-3.34
2019-01-30T01:47:41.490Z,-3.3
2019-01-30T01:48:41.291Z,-3.33
2019-01-30T01:49:41.013Z,-3.38
2019-01-30T01:50:41.153Z,-3.35
2019-01-30T01:51:41.630Z,-3.37
2019-01-30T01:52:41.241Z,-3.31
2019-01-30T01:53:41.043Z,-3.33
2019-01-30T01:54:41.367Z,-3.29
2019-01-30T01:55:40.976Z,-3.38
2019-01-30T01:56:41.087Z,-3.38
2019-01-30T01:57:41.017Z,-3.39
2019-01-30T01:58:41.902Z,-3.41
2019-01-30T01:59:41.083Z,-3.36
2019-01-30T02:00:41.099Z,-3.35
2019-01-30T02:01:41.188Z,-3.39
2019-01-30T02:02:41.144Z,-3.37
2019-01-30T02:03:41.126Z,-3.28
2019-01-30T02:04:41.498Z,-3.34
2019-01-30T02:05:41.127Z,-3.4
2019-01-30T02:06:41.215Z,-3.37
2019-01-30T02:07:41.064Z,-3.4
2019-01-30T02:08:41.226Z,-3.36
2019-01-30T02:09:41.151Z,-3.34
2019-01-30T02:10:41.010Z,-3.42
2019-01-30T02:11:41.678Z,-3.42
2019-01-30T02:12:41.071Z,-3.41
2019-01-30T02:13:41.042Z,-3.41
2019-01-30T02:14:41.037Z,-3.4
2019-01-30T02:15:41.518Z,-3.42
2019-01-30T02:16:41.024Z,-3.4
2019-01-30T02:17:41.080Z,-3.36
2019-01-30T02:18:40.937Z,-3.39
2019-01-30T02:19:41.056Z,-3.45
2019-01-30T02:20:41.195Z,-3.5
2019-01-30T02:21:41.106Z,-3.45
2019-01-30T02:22:41.236Z,-3.4
2019-01-30T02:23:41.055Z,-3.44
2019-01-30T02:24:41.112Z,-3.38
2019-01-30T02:25:41.027Z,-3.43
2019-01-30T02:26:41.353Z,-3.46
2019-01-30T02:27:40.941Z,-3.4
2019-01-30T02:28:41.476Z,-3.45
2019-01-30T02:29:40.919Z,-3.5
2019-01-30T02:30:48.006Z,-3.51
2019-01-30T02:31:41.844Z,-3.48
2019-01-30T02:32:41.216Z,-3.42
2019-01-30T02:33:41.512Z,-3.47
2019-01-30T02:34:41.797Z,-3.46
2019-01-30T02:35:40.954Z,-3.48
2019-01-30T02:36:41.120Z,-3.51
2019-01-30T02:37:41.101Z,-3.49
2019-01-30T02:38:41.236Z,-3.49
2019-01-30T02:39:42.713Z,-3.53
2019-01-30T02:40:41.264Z,-3.51
2019-01-30T02:41:40.927Z,-3.46
2019-01-30T02:42:41.378Z,-3.4
2019-01-30T02:43:41.014Z,-3.38
2019-01-30T02:44:41.101Z,-3.51
2019-01-30T02:45:41.216Z,-3.53
2019-01-30T02:46:41.059Z,-3.54
2019-01-30T02:47:40.967Z,-3.51
2019-01-30T02:48:41.190Z,-3.53
2019-01-30T02:49:41.469Z,-3.52
2019-01-30T02:50:41.089Z,-3.5
2019-01-30T02:51:40.920Z,-3.55
2019-01-30T02:52:41.049Z,-3.5
2019-01-30T02:53:41.004Z,-3.51
2019-01-30T02:54:40.917Z,-3.46
2019-01-30T02:55:42.700Z,-3.41
2019-01-30T02:56:41.261Z,-3.45
2019-01-30T02:57:41.186Z,-3.49
2019-01-30T02:58:40.960Z,-3.46
2019-01-30T02:59:41.278Z,-3.48
2019-01-30T03:00:41.176Z,-3.46
2019-01-30T03:01:40.892Z,-3.47
2019-01-30T03:02:41.308Z,-3.48
2019-01-30T03:03:41.090Z,-3.44
2019-01-30T03:04:41.214Z,-3.48
2019-01-30T03:05:41.017Z,-3.49
2019-01-30T03:06:40.870Z,-3.46
2019-01-30T03:07:41.140Z,-3.47
2019-01-30T03:08:41.364Z,-3.56
2019-01-30T03:09:41.589Z,-3.6
2019-01-30T03:10:41.169Z,-3.54
2019-01-30T03:11:41.165Z,-3.48
2019-01-30T03:12:41.384Z,-3.44
2019-01-30T03:13:41.069Z,-3.46
2019-01-30T03:14:40.955Z,-3.49
2019-01-30T03:15:40.888Z,-3.52
2019-01-30T03:16:41.000Z,-3.5
2019-01-30T03:17:41.388Z,-3.45
2019-01-30T03:18:41.022Z,-3.5
2019-01-30T03:19:40.862Z,-3.53
2019-01-30T03:20:40.854Z,-3.5
2019-01-30T03:21:41.315Z,-3.56
2019-01-30T03:22:41.400Z,-3.55
2019-01-30T03:23:41.269Z,-3.58
2019-01-30T03:24:41.252Z,-3.55
2019-01-30T03:25:41.482Z,-3.56
2019-01-30T03:26:41.149Z,-3.57
2019-01-30T03:27:41.707Z,-3.57
2019-01-30T03:28:41.283Z,-3.53
2019-01-30T03:29:41.114Z,-3.6
2019-01-30T03:30:40.822Z,-3.56
2019-01-30T03:31:40.932Z,-3.55
2019-01-30T03:32:40.899Z,-3.58
2019-01-30T03:33:40.872Z,-3.49
2019-01-30T03:34:41.206Z,-3.57
2019-01-30T03:35:40.901Z,-3.55
2019-01-30T03:36:41.125Z,-3.55
2019-01-30T03:37:41.089Z,-3.51
2019-01-30T03:38:41.018Z,-3.49
2019-01-30T03:39:40.878Z,-3.52
2019-01-30T03:40:41.281Z,-3.49
2019-01-30T03:41:40.892Z,-3.46
2019-01-30T03:42:40.981Z,-3.51
2019-01-30T03:43:40.908Z,-3.5
2019-01-30T03:44:41.089Z,-3.5
2019-01-30T03:45:40.872Z,-3.44
2019-01-30T03:46:40.897Z,-3.53
2019-01-30T03:47:40.827Z,-3.55
2019-01-30T03:48:40.789Z,-3.45
2019-01-30T03:49:41.108Z,-3.47
2019-01-30T03:50:40.967Z,-3.49
2019-01-30T03:51:40.810Z,-3.52
2019-01-30T03:52:40.787Z,-3.55
2019-01-30T03:53:40.868Z,-3.52
2019-01-30T03:54:40.826Z,-3.51
2019-01-30T03:55:40.900Z,-3.59
2019-01-30T03:56:41.008Z,-3.63
2019-01-30T03:57:40.979Z,-3.52
2019-01-30T03:58:41.290Z,-3.57
2019-01-30T03:59:41.190Z,-3.56
2019-01-30T04:00:41.082Z,-3.52
2019-01-30T04:01:40.846Z,-3.57
2019-01-30T04:02:40.942Z,-3.47
2019-01-30T04:03:41.117Z,-3.45
2019-01-30T04:04:41.380Z,-3.47
2019-01-30T04:05:41.133Z,-3.5
2019-01-30T04:06:41.121Z,-3.51
2019-01-30T04:07:40.886Z,-3.48
2019-01-30T04:08:40.783Z,-3.48
2019-01-30T04:09:41.185Z,-3.48
2019-01-30T04:10:41.057Z,-3.45
2019-01-30T04:11:41.164Z,-3.43
2019-01-30T04:12:40.778Z,-3.43
2019-01-30T04:13:40.757Z,-3.43
2019-01-30T04:14:40.800Z,-3.47
2019-01-30T04:15:41.094Z,-3.42
2019-01-30T04:16:41.504Z,-3.39
2019-01-30T04:17:41.157Z,-3.41
2019-01-30T04:18:40.892Z,-3.43
2019-01-30T04:19:41.320Z,-3.39
2019-01-30T04:20:40.858Z,-3.37
2019-01-30T04:21:40.843Z,-3.36
2019-01-30T04:22:41.033Z,-3.32
2019-01-30T04:23:40.793Z,-3.25
2019-01-30T04:24:41.049Z,-3.24
2019-01-30T04:25:41.233Z,-3.27
2019-01-30T04:26:40.896Z,-3.24
2019-01-30T04:27:40.841Z,-3.21
2019-01-30T04:28:41.164Z,-3.19
2019-01-30T04:29:40.952Z,-3.14
2019-01-30T04:30:40.871Z,-3.22
2019-01-30T04:31:40.892Z,-3.22
2019-01-30T04:32:41.117Z,-3.23
2019-01-30T04:33:40.850Z,-3.21
2019-01-30T04:34:41.273Z,-3.29
2019-01-30T04:35:40.703Z,-3.25
2019-01-30T04:36:40.886Z,-3.23
2019-01-30T04:37:40.881Z,-3.26
2019-01-30T04:38:40.716Z,-3.2
2019-01-30T04:39:40.780Z,-3.29
2019-01-30T04:40:40.984Z,-3.28
2019-01-30T04:41:40.797Z,-3.26
2019-01-30T04:42:41.166Z,-3.31
2019-01-30T04:43:40.881Z,-3.33
2019-01-30T04:44:40.742Z,-3.26
2019-01-30T04:45:40.938Z,-3.28
2019-01-30T04:46:41.092Z,-3.33
2019-01-30T04:47:40.922Z,-3.29
2019-01-30T04:48:40.738Z,-3.29
2019-01-30T04:49:40.730Z,-3.28
2019-01-30T04:50:40.959Z,-3.33
2019-01-30T04:51:41.148Z,-3.38
2019-01-30T04:52:40.713Z,-3.31
2019-01-30T04:53:40.933Z,-3.33
2019-01-30T04:54:41.154Z,-3.27
2019-01-30T04:55:40.666Z,-3.28
2019-01-30T04:56:40.682Z,-3.27
2019-01-30T04:57:40.985Z,-3.31
2019-01-30T04:58:40.912Z,-3.32
2019-01-30T04:59:40.850Z,-3.4
2019-01-30T05:00:41.724Z,-3.35
2019-01-30T05:01:50.250Z,-3.3
2019-01-30T05:02:41.066Z,-3.3
2019-01-30T05:03:40.750Z,-3.23
2019-01-30T05:04:40.863Z,-3.27
2019-01-30T05:05:40.935Z,-3.28
2019-01-30T05:06:40.739Z,-3.28
2019-01-30T05:07:40.860Z,-3.17
2019-01-30T05:08:40.813Z,-3.24
2019-01-30T05:09:40.803Z,-3.17
2019-01-30T05:10:40.841Z,-3.19
2019-01-30T05:11:41.180Z,-3.18
2019-01-30T05:12:40.704Z,-3.13
2019-01-30T05:13:40.706Z,-3.09
2019-01-30T05:14:40.663Z,-3.1
2019-01-30T05:15:40.793Z,-3.09
2019-01-30T05:16:40.739Z,-3.13
2019-01-30T05:17:40.686Z,-3.12
2019-01-30T05:18:40.852Z,-3.1
2019-01-30T05:19:40.984Z,-3.14
2019-01-30T05:20:40.685Z,-3.14
2019-01-30T05:21:40.949Z,-3.09
2019-01-30T05:22:41.185Z,-3.12
2019-01-30T05:23:40.682Z,-3.11
2019-01-30T05:24:40.735Z,-3.13
2019-01-30T05:25:40.980Z,-3.02
2019-01-30T05:26:40.869Z,-3.07
2019-01-30T05:27:41.143Z,-3.03
2019-01-30T05:28:40.710Z,-3.02
2019-01-30T05:29:40.749Z,-3.02
2019-01-30T05:30:41.519Z,-3.02
2019-01-30T05:31:40.730Z,-2.95
2019-01-30T05:32:40.612Z,-2.91
2019-01-30T05:33:41.336Z,-2.91
2019-01-30T05:34:40.681Z,-2.85
2019-01-30T05:35:40.675Z,-2.85
2019-01-30T05:36:40.702Z,-2.82
2019-01-30T05:37:40.981Z,-2.82
2019-01-30T05:38:40.834Z,-2.75
2019-01-30T05:39:40.813Z,-2.74
2019-01-30T05:40:41.275Z,-2.77
2019-01-30T05:41:41.828Z,-2.8
2019-01-30T05:42:41.782Z,-2.76
2019-01-30T05:43:44.913Z,-2.82
2019-01-30T05:44:42.135Z,-2.83
2019-01-30T05:45:42.293Z,-2.86
2019-01-30T05:46:42.118Z,-2.89
2019-01-30T05:47:45.516Z,-2.89
2019-01-30T05:48:40.874Z,-2.84
2019-01-30T05:49:42.666Z,-2.84
2019-01-30T05:50:40.675Z,-2.84
2019-01-30T05:51:40.759Z,-2.93
2019-01-30T05:52:40.649Z,-2.92
2019-01-30T05:53:41.264Z,-2.88
2019-01-30T05:54:41.147Z,-2.89
2019-01-30T05:55:40.725Z,-2.88
2019-01-30T05:56:40.731Z,-2.94
2019-01-30T05:57:40.666Z,-2.96
2019-01-30T05:58:40.781Z,-2.95
2019-01-30T05:59:40.720Z,-2.95
2019-01-30T06:00:41.039Z,-2.92
2019-01-30T06:01:40.782Z,-2.96
2019-01-30T06:02:40.652Z,-2.95
2019-01-30T06:03:40.722Z,-2.91
2019-01-30T06:04:40.615Z,-2.88
2019-01-30T06:05:41.149Z,-2.89
2019-01-30T06:06:40.935Z,-2.92
2019-01-30T06:07:40.672Z,-2.87
2019-01-30T06:08:40.919Z,-2.86
2019-01-30T06:09:40.733Z,-2.93
2019-01-30T06:10:40.874Z,-2.87
2019-01-30T06:11:40.628Z,-2.93
2019-01-30T06:12:41.705Z,-2.97
2019-01-30T06:13:40.862Z,-2.92
2019-01-30T06:14:40.740Z,-2.97
2019-01-30T06:15:40.540Z,-2.84
2019-01-30T06:16:40.570Z,-2.87
2019-01-30T06:17:42.415Z,-2.85
2019-01-30T06:18:40.820Z,-2.93
2019-01-30T06:19:40.548Z,-2.96
2019-01-30T06:20:40.700Z,-2.93
2019-01-30T06:21:40.618Z,-2.83
2019-01-30T06:22:41.260Z,-2.89
2019-01-30T06:23:40.655Z,-2.93
2019-01-30T06:24:41.068Z,-2.87
2019-01-30T06:25:40.610Z,-2.88
2019-01-30T06:26:40.616Z,-2.87
2019-01-30T06:27:40.967Z,-2.88
2019-01-30T06:28:41.251Z,-2.84
2019-01-30T06:29:41.201Z,-2.9
2019-01-30T06:30:40.546Z,-2.93
2019-01-30T06:31:40.761Z,-2.92
2019-01-30T06:32:40.793Z,-2.9
2019-01-30T06:33:40.676Z,-3.02
2019-01-30T06:34:40.618Z,-2.95
2019-01-30T06:35:40.836Z,-2.94
2019-01-30T06:36:40.610Z,-2.93
2019-01-30T06:37:41.146Z,-2.97
2019-01-30T06:38:40.966Z,-2.97
2019-01-30T06:39:40.854Z,-2.99
2019-01-30T06:40:41.025Z,-2.96
2019-01-30T06:41:42.387Z,-2.91
2019-01-30T06:42:40.773Z,-2.95
2019-01-30T06:43:40.875Z,-2.97
2019-01-30T06:44:40.626Z,-2.93
2019-01-30T06:45:42.379Z,-2.94
2019-01-30T06:46:41.224Z,-2.95
2019-01-30T06:47:40.794Z,-2.95
2019-01-30T06:48:40.619Z,-2.93
2019-01-30T06:49:40.576Z,-2.97
2019-01-30T06:50:44.017Z,-2.98
2019-01-30T06:51:40.538Z,-2.95
2019-01-30T06:52:40.614Z,-3.03
2019-01-30T06:53:40.533Z,-3
2019-01-30T06:54:41.366Z,-2.98
2019-01-30T06:55:40.586Z,-3.03
2019-01-30T06:56:40.520Z,-3.04
2019-01-30T06:57:40.701Z,-3.04
2019-01-30T06:58:40.795Z,-2.99
2019-01-30T06:59:40.501Z,-3
2019-01-30T07:00:40.516Z,-3
2019-01-30T07:01:40.549Z,-3.04
2019-01-30T07:02:41.126Z,-3
2019-01-30T07:03:40.731Z,-2.94
2019-01-30T07:04:40.558Z,-2.95
2019-01-30T07:05:40.532Z,-3.02
2019-01-30T07:06:40.833Z,-2.96
2019-01-30T07:07:40.507Z,-3.02
2019-01-30T07:08:40.890Z,-3.04
2019-01-30T07:09:40.546Z,-2.92
2019-01-30T07:10:40.526Z,-2.93
2019-01-30T07:11:40.577Z,-2.99
2019-01-30T07:12:40.592Z,-3
2019-01-30T07:13:40.662Z,-3.01
2019-01-30T07:14:40.556Z,-2.95
2019-01-30T07:15:40.791Z,-3.02
2019-01-30T07:16:40.469Z,-3.03
2019-01-30T07:17:41.316Z,-2.98
2019-01-30T07:18:40.521Z,-3
2019-01-30T07:19:40.511Z,-3.02
2019-01-30T07:20:40.522Z,-3.01
2019-01-30T07:21:40.847Z,-3.03
2019-01-30T07:22:40.532Z,-3.08
2019-01-30T07:23:40.481Z,-3.01
2019-01-30T07:24:41.071Z,-3.07
2019-01-30T07:25:40.992Z,-3.04
2019-01-30T07:26:40.601Z,-2.98
2019-01-30T07:27:40.687Z,-2.99
2019-01-30T07:28:40.483Z,-2.97
2019-01-30T07:29:40.558Z,-3.04
2019-01-30T07:30:40.531Z,-3.03
2019-01-30T07:31:40.794Z,-2.94
2019-01-30T07:32:42.718Z,-3.03
2019-01-30T07:33:40.522Z,-3
2019-01-30T07:34:40.455Z,-3
2019-01-30T07:35:40.580Z,-3.01
2019-01-30T07:36:40.606Z,-3.02
2019-01-30T07:37:42.592Z,-3.03
2019-01-30T07:38:41.531Z,-2.91
2019-01-30T07:39:40.425Z,-2.95
2019-01-30T07:40:42.300Z,-2.94
2019-01-30T07:41:40.483Z,-3
2019-01-30T07:42:40.783Z,-2.93
2019-01-30T07:43:40.812Z,-3.01
2019-01-30T07:44:51.352Z,-3.03
2019-01-30T07:45:40.487Z,-3.06
2019-01-30T07:46:40.799Z,-3.07
2019-01-30T07:47:40.539Z,-3
2019-01-30T07:48:40.522Z,-2.97
2019-01-30T07:49:40.463Z,-2.97
2019-01-30T07:50:40.839Z,-3.09
2019-01-30T07:51:40.844Z,-3.1
2019-01-30T07:52:40.538Z,-2.98
2019-01-30T07:53:40.756Z,-3.05
2019-01-30T07:54:40.590Z,-3.01
2019-01-30T07:55:40.664Z,-2.95
2019-01-30T07:56:40.520Z,-3
2019-01-30T07:57:40.675Z,-2.97
2019-01-30T07:58:40.453Z,-3.03
2019-01-30T07:59:40.521Z,-3.05
2019-01-30T08:00:40.399Z,-3.06
2019-01-30T08:01:42.255Z,-3.03
2019-01-30T08:02:53.952Z,-2.94
2019-01-30T08:03:40.851Z,-2.95
2019-01-30T08:04:40.825Z,-2.94
2019-01-30T08:05:40.468Z,-3.03
2019-01-30T08:06:41.666Z,-3.05
2019-01-30T08:07:40.870Z,-3.06
2019-01-30T08:08:40.831Z,-3.06
2019-01-30T08:09:41.302Z,-3.13
2019-01-30T08:10:40.471Z,-3.15
2019-01-30T08:11:40.530Z,-3.11
2019-01-30T08:12:40.792Z,-3.12
2019-01-30T08:13:40.788Z,-3.01
2019-01-30T08:14:40.779Z,-3.04
2019-01-30T08:15:40.450Z,-3.02
2019-01-30T08:16:40.596Z,-3.04
2019-01-30T08:17:40.537Z,-3.04
2019-01-30T08:18:40.935Z,-2.99
2019-01-30T08:19:40.388Z,-3.02
2019-01-30T08:20:40.515Z,-3.02
2019-01-30T08:21:40.538Z,-2.99
2019-01-30T08:22:42.380Z,-3.02
2019-01-30T08:23:41.529Z,-3.02
2019-01-30T08:24:41.721Z,-3.04
2019-01-30T08:25:40.781Z,-3.02
2019-01-30T08:26:41.434Z,-2.94
2019-01-30T08:27:41.935Z,-2.88
2019-01-30T08:28:41.462Z,-2.89
2019-01-30T08:29:41.248Z,-2.91
2019-01-30T08:30:40.948Z,-3
2019-01-30T08:31:41.135Z,-2.96
2019-01-30T08:32:41.981Z,-2.94
2019-01-30T08:33:40.510Z,-2.86
2019-01-30T08:34:40.377Z,-2.91
2019-01-30T08:35:40.384Z,-2.89
2019-01-30T08:36:40.493Z,-2.85
2019-01-30T08:37:40.608Z,-2.91
2019-01-30T08:38:40.508Z,-2.91
2019-01-30T08:39:40.437Z,-2.86
2019-01-30T08:40:40.404Z,-2.85
2019-01-30T08:41:40.501Z,-2.92
2019-01-30T08:42:40.469Z,-2.9
2019-01-30T08:43:40.511Z,-2.86
2019-01-30T08:44:47.515Z,-2.9
2019-01-30T08:45:40.585Z,-2.88
2019-01-30T08:46:40.349Z,-2.88
2019-01-30T08:47:40.330Z,-2.89
2019-01-30T08:48:40.578Z,-2.87
2019-01-30T08:49:40.536Z,-2.95
2019-01-30T08:50:40.428Z,-2.9
2019-01-30T08:51:40.499Z,-2.9
2019-01-30T08:52:41.852Z,-2.89
2019-01-30T08:53:40.748Z,-2.88
2019-01-30T08:54:40.324Z,-2.81
2019-01-30T08:55:40.694Z,-2.79
2019-01-30T08:56:53.500Z,-2.81
2019-01-30T08:57:40.710Z,-2.8
2019-01-30T08:58:40.330Z,-2.83
2019-01-30T08:59:40.327Z,-2.79
2019-01-30T09:00:40.358Z,-2.78
2019-01-30T09:01:40.539Z,-2.78
2019-01-30T09:02:40.595Z,-2.78
2019-01-30T09:03:40.407Z,-2.75
2019-01-30T09:04:40.427Z,-2.75
2019-01-30T09:05:40.537Z,-2.77
2019-01-30T09:06:40.430Z,-2.78
2019-01-30T09:07:44.923Z,-2.76
2019-01-30T09:08:40.396Z,-2.73
2019-01-30T09:09:40.560Z,-2.71
2019-01-30T09:10:40.390Z,-2.76
2019-01-30T09:11:40.773Z,-2.73
2019-01-30T09:12:40.582Z,-2.68
2019-01-30T09:13:40.489Z,-2.71
2019-01-30T09:14:40.495Z,-2.73
2019-01-30T09:15:40.373Z,-2.65
2019-01-30T09:16:40.334Z,-2.68
2019-01-30T09:17:40.313Z,-2.65
2019-01-30T09:18:40.626Z,-2.65
2019-01-30T09:19:40.375Z,-2.64
2019-01-30T09:20:40.328Z,-2.64
2019-01-30T09:21:40.957Z,-2.59
2019-01-30T09:22:40.303Z,-2.6
2019-01-30T09:23:43.172Z,-2.56
2019-01-30T09:24:40.302Z,-2.61
2019-01-30T09:25:42.089Z,-2.6
2019-01-30T09:26:40.676Z,-2.59
2019-01-30T09:27:40.509Z,-2.57
2019-01-30T09:28:40.298Z,-2.49
2019-01-30T09:29:40.300Z,-2.5
2019-01-30T09:30:40.455Z,-2.52
2019-01-30T09:31:40.296Z,-2.54
2019-01-30T09:32:40.767Z,-2.57
2019-01-30T09:33:40.334Z,-2.51
2019-01-30T09:34:40.585Z,-2.5
2019-01-30T09:35:40.576Z,-2.47
2019-01-30T09:36:40.556Z,-2.48
2019-01-30T09:37:41.158Z,-2.43
2019-01-30T09:38:41.018Z,-2.45
2019-01-30T09:39:40.316Z,-2.4
2019-01-30T09:40:40.708Z,-2.42
2019-01-30T09:41:40.297Z,-2.36
2019-01-30T09:42:40.302Z,-2.36
2019-01-30T09:43:40.349Z,-2.36
2019-01-30T09:44:40.667Z,-2.35
2019-01-30T09:45:40.937Z,-2.31
2019-01-30T09:46:40.475Z,-2.3
2019-01-30T09:47:40.611Z,-2.29
2019-01-30T09:48:40.625Z,-2.26
2019-01-30T09:49:40.806Z,-2.2
2019-01-30T09:50:40.285Z,-2.24
2019-01-30T09:51:40.347Z,-2.22
2019-01-30T09:52:41.126Z,-2.13
2019-01-30T09:53:40.282Z,-2.12
2019-01-30T09:54:40.412Z,-2.11
2019-01-30T09:55:40.543Z,-2.13
2019-01-30T09:56:40.749Z,-2.1
2019-01-30T09:57:40.479Z,-2.06
2019-01-30T09:58:40.245Z,-2.05
2019-01-30T09:59:40.373Z,-2.01
2019-01-30T10:00:40.238Z,-1.98
2019-01-30T10:01:40.192Z,-2.04
2019-01-30T10:02:40.442Z,-2
2019-01-30T10:03:40.535Z,-1.99
2019-01-30T10:04:40.392Z,-1.98
2019-01-30T10:05:40.220Z,-1.99
2019-01-30T10:06:40.418Z,-1.97
2019-01-30T10:07:40.841Z,-2
2019-01-30T10:08:40.321Z,-2
2019-01-30T10:09:40.184Z,-1.97
2019-01-30T10:10:40.509Z,-1.95
2019-01-30T10:11:40.500Z,-2
2019-01-30T10:12:40.358Z,-1.94
2019-01-30T10:13:40.674Z,-1.95
2019-01-30T10:14:41.098Z,-1.93
2019-01-30T10:15:40.226Z,-1.9
2019-01-30T10:16:40.435Z,-1.86
2019-01-30T10:17:40.515Z,-1.89
2019-01-30T10:18:40.268Z,-1.9
2019-01-30T10:19:42.068Z,-1.87
2019-01-30T10:20:40.257Z,-1.87
2019-01-30T10:21:40.271Z,-1.84
2019-01-30T10:22:40.270Z,-1.84
2019-01-30T10:23:40.374Z,-1.84
2019-01-30T10:25:40.377Z,-1.83
2019-01-30T10:26:40.242Z,-1.84
2019-01-30T10:27:40.305Z,-1.77
2019-01-30T10:28:40.263Z,-1.74
2019-01-30T10:29:40.579Z,-1.72
2019-01-30T10:30:40.411Z,-1.71
2019-01-30T10:31:40.284Z,-1.7
2019-01-30T10:32:40.365Z,-1.74
2019-01-30T10:33:47.050Z,-1.73
2019-01-30T10:34:40.349Z,-1.68
2019-01-30T10:35:40.238Z,-1.68
2019-01-30T10:36:40.906Z,-1.63
2019-01-30T10:37:40.875Z,-1.62
2019-01-30T10:38:40.219Z,-1.63
2019-01-30T10:39:40.165Z,-1.67
2019-01-30T10:40:41.159Z,-1.6
2019-01-30T10:41:41.093Z,-1.56
2019-01-30T10:42:40.522Z,-1.61
2019-01-30T10:43:40.210Z,-1.56
2019-01-30T10:44:40.228Z,-1.56
2019-01-30T10:45:40.710Z,-1.58
2019-01-30T10:46:40.479Z,-1.56
2019-01-30T10:47:40.725Z,-1.58
2019-01-30T10:48:40.231Z,-1.56
2019-01-30T10:49:40.617Z,-1.53
2019-01-30T10:50:40.270Z,-1.49
2019-01-30T10:51:40.250Z,-1.52
2019-01-30T10:52:40.424Z,-1.5
2019-01-30T10:53:40.370Z,-1.45
2019-01-30T10:54:40.132Z,-1.46
2019-01-30T10:55:40.179Z,-1.49
2019-01-30T10:56:40.212Z,-1.49
2019-01-30T10:57:40.149Z,-1.49
2019-01-30T10:58:40.194Z,-1.5
2019-01-30T10:59:40.157Z,-1.49
2019-01-30T11:00:40.174Z,-1.44
2019-01-30T11:01:40.258Z,-1.41
2019-01-30T11:02:40.247Z,-1.36
2019-01-30T11:03:40.082Z,-1.38
2019-01-30T11:04:40.192Z,-1.35
2019-01-30T11:05:40.152Z,-1.36
2019-01-30T11:06:40.185Z,-1.38
2019-01-30T11:07:40.082Z,-1.37
2019-01-30T11:08:40.406Z,-1.34
2019-01-30T11:09:40.141Z,-1.31
2019-01-30T11:10:40.161Z,-1.2
2019-01-30T11:11:40.187Z,-1.19
2019-01-30T11:12:40.166Z,-1.15
2019-01-30T11:13:40.894Z,-1.17
2019-01-30T11:14:41.311Z,-1.15
2019-01-30T11:15:40.274Z,-1.12
2019-01-30T11:16:40.493Z,-1.08
2019-01-30T11:17:40.391Z,-1
2019-01-30T11:18:40.525Z,-0.97
2019-01-30T11:19:40.180Z,-0.93
2019-01-30T11:20:40.128Z,-0.91
2019-01-30T11:21:40.627Z,-0.9
2019-01-30T11:22:40.279Z,-0.91
2019-01-30T11:23:40.356Z,-0.87
2019-01-30T11:24:40.243Z,-0.85
2019-01-30T11:25:40.197Z,-0.8
2019-01-30T11:26:40.540Z,-0.82
2019-01-30T11:27:40.154Z,-0.9
2019-01-30T11:28:40.254Z,-0.9
2019-01-30T11:29:40.212Z,-0.9
2019-01-30T11:30:41.012Z,-0.88
2019-01-30T11:31:41.394Z,-0.88
2019-01-30T11:32:40.138Z,-0.86
2019-01-30T11:33:40.891Z,-0.84
2019-01-30T11:34:40.156Z,-0.85
2019-01-30T11:35:40.183Z,-0.9
2019-01-30T11:36:40.847Z,-0.87
2019-01-30T11:37:41.061Z,-0.84
2019-01-30T11:38:40.340Z,-0.81
2019-01-30T11:39:41.124Z,-0.83
2019-01-30T11:40:40.579Z,-0.8
2019-01-30T11:41:41.311Z,-0.76
2019-01-30T11:42:40.121Z,-0.77
2019-01-30T11:43:41.213Z,-0.73
2019-01-30T11:44:40.216Z,-0.71
2019-01-30T11:45:40.420Z,-0.75
2019-01-30T11:46:40.391Z,-0.75
2019-01-30T11:47:40.145Z,-0.69
2019-01-30T11:48:40.409Z,-0.66
2019-01-30T11:49:40.311Z,-0.6
2019-01-30T11:50:40.338Z,-0.56
2019-01-30T11:51:40.078Z,-0.57
2019-01-30T11:52:40.953Z,-0.52
2019-01-30T11:53:40.354Z,-0.49
2019-01-30T11:54:40.860Z,-0.43
2019-01-30T11:55:40.553Z,-0.35
2019-01-30T11:56:41.297Z,-0.32
2019-01-30T11:57:40.118Z,-0.29
2019-01-30T11:58:40.169Z,-0.25
2019-01-30T11:59:40.383Z,-0.18
2019-01-30T12:00:40.328Z,-0.16
2019-01-30T12:01:40.710Z,-0.12
2019-01-30T12:02:48.732Z,-0.12
2019-01-30T12:03:40.083Z,-0.1
2019-01-30T12:04:40.405Z,-0.09
2019-01-30T12:05:40.483Z,-0.1
2019-01-30T12:06:40.236Z,-0.06
2019-01-30T12:07:40.344Z,0
2019-01-30T12:08:40.234Z,0.01
2019-01-30T12:09:40.344Z,0.04
2019-01-30T12:10:40.097Z,0.03
2019-01-30T12:11:40.028Z,0.08
2019-01-30T12:12:40.368Z,0.08
2019-01-30T12:13:40.376Z,0.11
2019-01-30T12:14:40.075Z,0.09
2019-01-30T12:15:40.183Z,0.16
2019-01-30T12:16:40.412Z,0.21
2019-01-30T12:17:40.294Z,0.02
2019-01-30T12:18:40.433Z,0.03
2019-01-30T12:19:40.162Z,0.09
2019-01-30T12:20:40.190Z,0.03
2019-01-30T12:21:40.181Z,0.05
2019-01-30T12:22:40.131Z,0.07
2019-01-30T12:23:40.118Z,0.12
2019-01-30T12:24:40.268Z,0.17
2019-01-30T12:25:40.207Z,0.17
2019-01-30T12:26:40.255Z,0.15
2019-01-30T12:27:40.264Z,0.14
2019-01-30T12:28:40.091Z,0
2019-01-30T12:29:40.436Z,-0.07
2019-01-30T12:30:40.046Z,-0.03
2019-01-30T12:31:40.393Z,0
2019-01-30T12:32:40.045Z,-0.08
2019-01-30T12:33:40.433Z,-0.1
2019-01-30T12:34:40.100Z,-0.21
2019-01-30T12:35:40.446Z,-0.14
2019-01-30T12:36:40.038Z,-0.11
2019-01-30T12:37:40.495Z,-0.19
2019-01-30T12:38:40.024Z,-0.26
2019-01-30T12:39:40.154Z,-0.27
2019-01-30T12:40:40.049Z,-0.21
2019-01-30T12:41:40.933Z,-0.18
2019-01-30T12:42:40.096Z,-0.26
2019-01-30T12:43:40.376Z,-0.37
2019-01-30T12:44:39.995Z,-0.47
2019-01-30T12:45:40.300Z,-0.41
2019-01-30T12:46:40.024Z,-0.35
2019-01-30T12:47:40.227Z,-0.43
2019-01-30T12:48:40.332Z,-0.37
2019-01-30T12:49:40.234Z,-0.38
2019-01-30T12:50:40.212Z,-0.4
2019-01-30T12:51:40.166Z,-0.47
2019-01-30T12:52:40.532Z,-0.43
2019-01-30T12:53:40.069Z,-0.45
2019-01-30T12:54:40.242Z,-0.5
2019-01-30T12:55:39.938Z,-0.43
2019-01-30T12:56:40.072Z,-0.39
2019-01-30T12:57:40.464Z,-0.36
2019-01-30T12:58:40.003Z,-0.33